Terminal Aerodrome Forecast
Issued by NWS Sterling, VA

Current Version | Previous Version | Graphics & Text | Print | Product List | Glossary On
Versions: 1 2 3 4 5 6 7 8 9 10 11 12 13 14 15 16 17 18 19 20 21 22 23 24 25 26 27 28
216
FTUS41 KLWX 260539
TAFDCA
TAF
KDCA 260539Z 2606/2706 09010G18KT P6SM OVC080
     FM260900 08011G20KT P6SM OVC020
     FM261000 08011G20KT P6SM OVC010
     FM261100 08011G20KT P6SM OVC008
     FM261500 09010G18KT 3SM -DZ BKN008
     FM262100 09011G18KT 4SM -DZ BKN015
     FM270300 12009KT 4SM -DZ BKN035=

USA.gov is the U.S. government's official web portal to all federal, state and local government web resources and services.